sensor_id;sensor_type;location;lat;lon;timestamp;pressure;altitude;pressure_sealevel;temperature;humidity
23318;BME280;11831;55.918;37.746;2023-03-30T00:00:58;98523.19;;;10.39;0.00
23318;BME280;11831;55.918;37.746;2023-03-30T00:03:26;98520.94;;;10.53;0.00
23318;BME280;11831;55.918;37.746;2023-03-30T00:05:53;98519.84;;;10.49;0.00
23318;BME280;11831;55.918;37.746;2023-03-30T00:08:24;98518.59;;;10.56;0.00
23318;BME280;11831;55.918;37.746;2023-03-30T00:11:09;98528.72;;;10.33;0.00
23318;BME280;11831;55.918;37.746;2023-03-30T00:13:37;98523.37;;;10.33;0.00
23318;BME280;11831;55.918;37.746;2023-03-30T00:16:05;98532.34;;;9.88;0.00
23318;BME280;11831;55.918;37.746;2023-03-30T00:18:33;98532.13;;;9.73;0.00
23318;BME280;11831;55.918;37.746;2023-03-30T00:21:02;98534.59;;;9.96;0.00
23318;BME280;11831;55.918;37.746;2023-03-30T00:23:29;98536.59;;;10.06;0.00
23318;BME280;11831;55.918;37.746;2023-03-30T00:25:56;98534.28;;;9.76;0.00
23318;BME280;11831;55.918;37.746;2023-03-30T00:28:22;98537.06;;;9.81;0.00
23318;BME280;11831;55.918;37.746;2023-03-30T00:30:50;98526.22;;;10.09;0.00
23318;BME280;11831;55.918;37.746;2023-03-30T00:33:19;98525.03;;;10.39;0.00
23318;BME280;11831;55.918;37.746;2023-03-30T00:35:53;98524.06;;;10.06;0.00
23318;BME280;11831;55.918;37.746;2023-03-30T00:38:20;98532.09;;;10.45;0.00
23318;BME280;11831;55.918;37.746;2023-03-30T00:40:58;98533.75;;;10.29;0.00
23318;BME280;11831;55.918;37.746;2023-03-30T00:43:26;98528.03;;;10.04;0.00
23318;BME280;11831;55.918;37.746;2023-03-30T00:45:55;98525.31;;;10.86;0.00
23318;BME280;11831;55.918;37.746;2023-03-30T00:48:33;98529.69;;;10.10;0.00
23318;BME280;11831;55.918;37.746;2023-03-30T00:51:08;98528.13;;;9.92;0.00
23318;BME280;11831;55.918;37.746;2023-03-30T00:53:41;98526.03;;;9.94;0.00
23318;BME280;11831;55.918;37.746;2023-03-30T00:56:10;98528.22;;;10.36;0.00
23318;BME280;11831;55.918;37.746;2023-03-30T00:58:40;98522.06;;;10.35;0.00
23318;BME280;11831;55.918;37.746;2023-03-30T01:01:10;98529.50;;;10.11;0.00
23318;BME280;11831;55.918;37.746;2023-03-30T01:03:41;98521.91;;;10.42;0.00
23318;BME280;11831;55.918;37.746;2023-03-30T01:06:11;98522.59;;;10.81;0.00
23318;BME280;11831;55.918;37.746;2023-03-30T01:08:38;98519.50;;;10.67;0.00
23318;BME280;11831;55.918;37.746;2023-03-30T01:11:06;98518.34;;;10.58;0.00
23318;BME280;11831;55.918;37.746;2023-03-30T01:13:35;98525.34;;;10.20;0.00
23318;BME280;11831;55.918;37.746;2023-03-30T01:18:38;98526.00;;;10.11;0.00
23318;BME280;11831;55.918;37.746;2023-03-30T01:27:49;98528.38;;;9.90;0.00
23318;BME280;11831;55.918;37.746;2023-03-30T01:35:32;98532.56;;;10.03;0.00
23318;BME280;11831;55.918;37.746;2023-03-30T01:38:22;98538.53;;;9.55;0.00
23318;BME280;11831;55.918;37.746;2023-03-30T01:43:52;98527.28;;;10.08;0.00
23318;BME280;11831;55.918;37.746;2023-03-30T01:46:37;98541.00;;;10.34;0.00
23318;BME280;11831;55.918;37.746;2023-03-30T01:49:19;98540.38;;;10.26;0.00
23318;BME280;11831;55.918;37.746;2023-03-30T01:52:04;98538.59;;;10.54;0.00
23318;BME280;11831;55.918;37.746;2023-03-30T01:54:35;98539.94;;;10.35;0.00
23318;BME280;11831;55.918;37.746;2023-03-30T01:59:43;98543.50;;;10.62;0.00
23318;BME280;11831;55.918;37.746;2023-03-30T02:02:15;98549.38;;;10.04;0.00
23318;BME280;11831;55.918;37.746;2023-03-30T02:04:43;98546.91;;;9.97;0.00
23318;BME280;11831;55.918;37.746;2023-03-30T02:07:15;98555.16;;;9.95;0.00
23318;BME280;11831;55.918;37.746;2023-03-30T02:09:44;98552.03;;;9.82;0.00
23318;BME280;11831;55.918;37.746;2023-03-30T02:12:12;98555.75;;;9.81;0.00
23318;BME280;11831;55.918;37.746;2023-03-30T02:14:40;98566.88;;;10.11;0.00
23318;BME280;11831;55.918;37.746;2023-03-30T02:19:33;98570.84;;;9.75;0.00
23318;BME280;11831;55.918;37.746;2023-03-30T02:22:03;98572.56;;;9.81;0.00
23318;BME280;11831;55.918;37.746;2023-03-30T02:24:31;98566.88;;;9.78;0.00
23318;BME280;11831;55.918;37.746;2023-03-30T02:27:00;98559.34;;;10.25;0.00
23318;BME280;11831;55.918;37.746;2023-03-30T02:29:27;98556.41;;;10.70;0.00
23318;BME280;11831;55.918;37.746;2023-03-30T02:31:56;98562.25;;;10.23;0.00
23318;BME280;11831;55.918;37.746;2023-03-30T02:37:13;98573.53;;;9.92;0.00
23318;BME280;11831;55.918;37.746;2023-03-30T02:42:31;98581.13;;;9.33;0.00
23318;BME280;11831;55.918;37.746;2023-03-30T02:52:53;98585.72;;;8.17;0.00
23318;BME280;11831;55.918;37.746;2023-03-30T02:55:27;98589.44;;;8.04;0.00
23318;BME280;11831;55.918;37.746;2023-03-30T02:58:25;98580.97;;;8.43;0.00
23318;BME280;11831;55.918;37.746;2023-03-30T03:01:00;98584.00;;;8.34;0.00
23318;BME280;11831;55.918;37.746;2023-03-30T03:03:33;98587.59;;;8.05;0.00
23318;BME280;11831;55.918;37.746;2023-03-30T03:06:06;98590.56;;;8.20;0.00
23318;BME280;11831;55.918;37.746;2023-03-30T03:08:37;98581.53;;;8.45;0.00
23318;BME280;11831;55.918;37.746;2023-03-30T03:11:05;98585.84;;;8.34;0.00
23318;BME280;11831;55.918;37.746;2023-03-30T03:13:35;98591.63;;;8.07;0.00
23318;BME280;11831;55.918;37.746;2023-03-30T03:16:03;98596.00;;;7.90;0.00
23318;BME280;11831;55.918;37.746;2023-03-30T03:18:30;98596.25;;;8.12;0.00
23318;BME280;11831;55.918;37.746;2023-03-30T03:20:57;98594.75;;;7.81;0.00
23318;BME280;11831;55.918;37.746;2023-03-30T03:23:24;98594.50;;;7.94;0.00
23318;BME280;11831;55.918;37.746;2023-03-30T03:25:50;98599.25;;;7.81;0.00
23318;BME280;11831;55.918;37.746;2023-03-30T03:28:17;98596.47;;;7.87;0.00
23318;BME280;11831;55.918;37.746;2023-03-30T03:30:44;98595.44;;;8.23;0.00
23318;BME280;11831;55.918;37.746;2023-03-30T03:33:10;98591.75;;;8.13;0.00
23318;BME280;11831;55.918;37.746;2023-03-30T03:35:37;98594.06;;;8.09;0.00
23318;BME280;11831;55.918;37.746;2023-03-30T03:38:05;98589.63;;;8.26;0.00
23318;BME280;11831;55.918;37.746;2023-03-30T03:40:32;98595.91;;;8.32;0.00
23318;BME280;11831;55.918;37.746;2023-03-30T03:42:59;98592.44;;;8.08;0.00
23318;BME280;11831;55.918;37.746;2023-03-30T03:45:25;98596.34;;;8.52;0.00
23318;BME280;11831;55.918;37.746;2023-03-30T03:47:52;98604.72;;;8.32;0.00
23318;BME280;11831;55.918;37.746;2023-03-30T03:50:20;98614.19;;;7.93;0.00
23318;BME280;11831;55.918;37.746;2023-03-30T03:52:47;98622.31;;;7.98;0.00
23318;BME280;11831;55.918;37.746;2023-03-30T03:55:13;98614.63;;;7.67;0.00
23318;BME280;11831;55.918;37.746;2023-03-30T03:57:40;98626.88;;;7.26;0.00
23318;BME280;11831;55.918;37.746;2023-03-30T04:00:07;98612.50;;;7.45;0.00
23318;BME280;11831;55.918;37.746;2023-03-30T04:02:42;98619.63;;;7.75;0.00
23318;BME280;11831;55.918;37.746;2023-03-30T04:05:09;98624.03;;;7.81;0.00
23318;BME280;11831;55.918;37.746;2023-03-30T04:07:36;98626.28;;;7.54;0.00
23318;BME280;11831;55.918;37.746;2023-03-30T04:10:04;98624.38;;;7.85;0.00
23318;BME280;11831;55.918;37.746;2023-03-30T04:12:32;98641.22;;;7.25;0.00
23318;BME280;11831;55.918;37.746;2023-03-30T04:14:58;98633.03;;;7.80;0.00
23318;BME280;11831;55.918;37.746;2023-03-30T04:17:25;98626.72;;;7.51;0.00
23318;BME280;11831;55.918;37.746;2023-03-30T04:19:52;98636.78;;;8.02;0.00
23318;BME280;11831;55.918;37.746;2023-03-30T04:22:19;98634.97;;;7.61;0.00
23318;BME280;11831;55.918;37.746;2023-03-30T04:24:50;98640.00;;;7.81;0.00
23318;BME280;11831;55.918;37.746;2023-03-30T04:27:18;98638.38;;;7.92;0.00
23318;BME280;11831;55.918;37.746;2023-03-30T04:29:46;98636.53;;;8.04;0.00
23318;BME280;11831;55.918;37.746;2023-03-30T04:32:13;98635.28;;;8.30;0.00
23318;BME280;11831;55.918;37.746;2023-03-30T04:34:46;98635.72;;;8.15;0.00
23318;BME280;11831;55.918;37.746;2023-03-30T04:37:12;98634.94;;;8.50;0.00
23318;BME280;11831;55.918;37.746;2023-03-30T04:39:43;98634.31;;;8.71;0.00
23318;BME280;11831;55.918;37.746;2023-03-30T04:42:11;98638.41;;;8.27;0.00
23318;BME280;11831;55.918;37.746;2023-03-30T04:44:39;98639.22;;;8.27;0.00
23318;BME280;11831;55.918;37.746;2023-03-30T04:47:07;98640.94;;;8.10;0.00
23318;BME280;11831;55.918;37.746;2023-03-30T04:49:34;98643.03;;;8.08;0.00
23318;BME280;11831;55.918;37.746;2023-03-30T04:52:00;98637.94;;;8.06;0.00
23318;BME280;11831;55.918;37.746;2023-03-30T04:54:27;98640.38;;;7.96;0.00
23318;BME280;11831;55.918;37.746;2023-03-30T04:56:54;98640.22;;;7.91;0.00
23318;BME280;11831;55.918;37.746;2023-03-30T04:59:21;98639.06;;;7.87;0.00
23318;BME280;11831;55.918;37.746;2023-03-30T05:01:48;98648.00;;;8.04;0.00
23318;BME280;11831;55.918;37.746;2023-03-30T05:04:16;98642.09;;;8.02;0.00
23318;BME280;11831;55.918;37.746;2023-03-30T05:06:43;98637.09;;;7.83;0.00
23318;BME280;11831;55.918;37.746;2023-03-30T05:09:09;98640.34;;;7.85;0.00
23318;BME280;11831;55.918;37.746;2023-03-30T05:11:36;98639.75;;;7.94;0.00
23318;BME280;11831;55.918;37.746;2023-03-30T05:14:02;98639.91;;;8.46;0.00
23318;BME280;11831;55.918;37.746;2023-03-30T05:16:29;98636.91;;;8.43;0.00
23318;BME280;11831;55.918;37.746;2023-03-30T05:18:57;98641.88;;;8.04;0.00
23318;BME280;11831;55.918;37.746;2023-03-30T05:21:23;98632.72;;;8.23;0.00
23318;BME280;11831;55.918;37.746;2023-03-30T05:23:50;98634.47;;;8.29;0.00
23318;BME280;11831;55.918;37.746;2023-03-30T05:26:16;98638.72;;;7.95;0.00
23318;BME280;11831;55.918;37.746;2023-03-30T05:28:43;98640.59;;;8.18;0.00
23318;BME280;11831;55.918;37.746;2023-03-30T05:31:09;98643.94;;;8.02;0.00
23318;BME280;11831;55.918;37.746;2023-03-30T05:33:36;98640.38;;;7.96;0.00
23318;BME280;11831;55.918;37.746;2023-03-30T05:36:04;98629.13;;;8.06;0.00
23318;BME280;11831;55.918;37.746;2023-03-30T05:38:32;98637.47;;;8.09;0.00
23318;BME280;11831;55.918;37.746;2023-03-30T05:40:59;98640.50;;;8.36;0.00
23318;BME280;11831;55.918;37.746;2023-03-30T05:43:25;98639.91;;;8.58;0.00
23318;BME280;11831;55.918;37.746;2023-03-30T05:45:52;98645.59;;;8.38;0.00
23318;BME280;11831;55.918;37.746;2023-03-30T05:48:21;98646.38;;;8.15;0.00
23318;BME280;11831;55.918;37.746;2023-03-30T05:50:48;98645.44;;;8.56;0.00
23318;BME280;11831;55.918;37.746;2023-03-30T05:53:15;98643.16;;;8.60;0.00
23318;BME280;11831;55.918;37.746;2023-03-30T05:55:43;98643.63;;;8.45;0.00
23318;BME280;11831;55.918;37.746;2023-03-30T05:58:12;98655.31;;;8.32;0.00
23318;BME280;11831;55.918;37.746;2023-03-30T06:00:39;98639.66;;;8.71;0.00
23318;BME280;11831;55.918;37.746;2023-03-30T06:03:07;98641.31;;;8.37;0.00
23318;BME280;11831;55.918;37.746;2023-03-30T06:05:37;98652.97;;;8.71;0.00
23318;BME280;11831;55.918;37.746;2023-03-30T06:08:11;98650.28;;;8.83;0.00
23318;BME280;11831;55.918;37.746;2023-03-30T06:10:38;98653.50;;;8.96;0.00
23318;BME280;11831;55.918;37.746;2023-03-30T06:13:04;98647.50;;;8.89;0.00
23318;BME280;11831;55.918;37.746;2023-03-30T06:15:31;98654.16;;;8.52;0.00
23318;BME280;11831;55.918;37.746;2023-03-30T06:18:00;98649.88;;;8.27;0.00
23318;BME280;11831;55.918;37.746;2023-03-30T06:20:29;98643.84;;;8.32;0.00
23318;BME280;11831;55.918;37.746;2023-03-30T06:22:56;98660.03;;;8.07;0.00
23318;BME280;11831;55.918;37.746;2023-03-30T06:25:22;98656.00;;;8.04;0.00
23318;BME280;11831;55.918;37.746;2023-03-30T06:27:49;98656.41;;;7.78;0.00
23318;BME280;11831;55.918;37.746;2023-03-30T06:30:15;98654.59;;;8.02;0.00
23318;BME280;11831;55.918;37.746;2023-03-30T06:32:43;98661.78;;;8.13;0.00
23318;BME280;11831;55.918;37.746;2023-03-30T06:35:11;98652.97;;;8.13;0.00
23318;BME280;11831;55.918;37.746;2023-03-30T06:37:38;98658.34;;;8.36;0.00
23318;BME280;11831;55.918;37.746;2023-03-30T06:40:06;98659.34;;;8.23;0.00
23318;BME280;11831;55.918;37.746;2023-03-30T06:42:39;98664.28;;;9.01;0.00
23318;BME280;11831;55.918;37.746;2023-03-30T06:45:07;98661.44;;;8.68;0.00
23318;BME280;11831;55.918;37.746;2023-03-30T06:47:34;98670.47;;;8.79;0.00
23318;BME280;11831;55.918;37.746;2023-03-30T06:50:00;98665.03;;;9.14;0.00
23318;BME280;11831;55.918;37.746;2023-03-30T06:52:27;98658.47;;;9.61;0.00
23318;BME280;11831;55.918;37.746;2023-03-30T06:54:53;98663.75;;;8.88;0.00
23318;BME280;11831;55.918;37.746;2023-03-30T06:57:20;98665.44;;;8.94;0.00
23318;BME280;11831;55.918;37.746;2023-03-30T06:59:46;98662.06;;;8.98;0.00
23318;BME280;11831;55.918;37.746;2023-03-30T07:02:14;98659.22;;;9.17;0.00
23318;BME280;11831;55.918;37.746;2023-03-30T07:04:41;98662.44;;;8.90;0.00
23318;BME280;11831;55.918;37.746;2023-03-30T07:07:12;98667.94;;;8.49;0.00
23318;BME280;11831;55.918;37.746;2023-03-30T07:09:38;98665.03;;;8.74;0.00
23318;BME280;11831;55.918;37.746;2023-03-30T07:12:06;98659.44;;;9.55;0.00
23318;BME280;11831;55.918;37.746;2023-03-30T07:14:32;98654.34;;;9.71;0.00
23318;BME280;11831;55.918;37.746;2023-03-30T07:16:59;98653.72;;;9.80;0.00
23318;BME280;11831;55.918;37.746;2023-03-30T07:19:26;98665.88;;;9.02;0.00
23318;BME280;11831;55.918;37.746;2023-03-30T07:21:52;98660.97;;;8.71;0.00
23318;BME280;11831;55.918;37.746;2023-03-30T07:24:19;98661.88;;;9.45;0.00
23318;BME280;11831;55.918;37.746;2023-03-30T07:26:45;98665.56;;;8.99;0.00
23318;BME280;11831;55.918;37.746;2023-03-30T07:29:12;98664.19;;;8.85;0.00
23318;BME280;11831;55.918;37.746;2023-03-30T07:31:40;98665.41;;;9.06;0.00
23318;BME280;11831;55.918;37.746;2023-03-30T07:34:07;98670.00;;;8.70;0.00
23318;BME280;11831;55.918;37.746;2023-03-30T07:36:34;98657.84;;;9.43;0.00
23318;BME280;11831;55.918;37.746;2023-03-30T07:39:00;98666.97;;;9.18;0.00
23318;BME280;11831;55.918;37.746;2023-03-30T07:41:27;98662.31;;;8.85;0.00
23318;BME280;11831;55.918;37.746;2023-03-30T07:43:53;98666.38;;;9.56;0.00
23318;BME280;11831;55.918;37.746;2023-03-30T07:46:19;98655.22;;;9.76;0.00
23318;BME280;11831;55.918;37.746;2023-03-30T07:48:46;98652.59;;;10.43;0.00
23318;BME280;11831;55.918;37.746;2023-03-30T07:51:13;98652.97;;;10.35;0.00
23318;BME280;11831;55.918;37.746;2023-03-30T07:53:40;98660.13;;;10.68;0.00
23318;BME280;11831;55.918;37.746;2023-03-30T07:56:08;98660.06;;;10.63;0.00
23318;BME280;11831;55.918;37.746;2023-03-30T07:58:35;98663.09;;;10.50;0.00
23318;BME280;11831;55.918;37.746;2023-03-30T08:01:02;98666.41;;;9.90;0.00
23318;BME280;11831;55.918;37.746;2023-03-30T08:03:30;98666.56;;;9.67;0.00
23318;BME280;11831;55.918;37.746;2023-03-30T08:05:59;98672.09;;;9.48;0.00
23318;BME280;11831;55.918;37.746;2023-03-30T08:08:30;98674.81;;;9.37;0.00
23318;BME280;11831;55.918;37.746;2023-03-30T08:10:56;98676.75;;;9.13;0.00
23318;BME280;11831;55.918;37.746;2023-03-30T08:13:23;98674.09;;;9.41;0.00
23318;BME280;11831;55.918;37.746;2023-03-30T08:15:49;98672.63;;;9.33;0.00
23318;BME280;11831;55.918;37.746;2023-03-30T08:18:17;98672.69;;;9.67;0.00
23318;BME280;11831;55.918;37.746;2023-03-30T08:20:43;98671.38;;;10.15;0.00
23318;BME280;11831;55.918;37.746;2023-03-30T08:23:11;98675.75;;;10.76;0.00
23318;BME280;11831;55.918;37.746;2023-03-30T08:25:37;98674.91;;;10.04;0.00
23318;BME280;11831;55.918;37.746;2023-03-30T08:28:04;98673.25;;;9.52;0.00
23318;BME280;11831;55.918;37.746;2023-03-30T08:30:33;98682.66;;;9.72;0.00
23318;BME280;11831;55.918;37.746;2023-03-30T08:33:00;98682.97;;;9.58;0.00
23318;BME280;11831;55.918;37.746;2023-03-30T08:35:26;98680.53;;;8.77;0.00
23318;BME280;11831;55.918;37.746;2023-03-30T08:37:53;98685.41;;;8.80;0.00
23318;BME280;11831;55.918;37.746;2023-03-30T08:40:21;98690.94;;;9.01;0.00
23318;BME280;11831;55.918;37.746;2023-03-30T08:45:15;98684.84;;;8.66;0.00
23318;BME280;11831;55.918;37.746;2023-03-30T08:47:44;98691.56;;;8.45;0.00
23318;BME280;11831;55.918;37.746;2023-03-30T08:50:27;98688.63;;;8.12;0.00
23318;BME280;11831;55.918;37.746;2023-03-30T08:52:55;98694.38;;;8.38;0.00
23318;BME280;11831;55.918;37.746;2023-03-30T08:58:17;98685.66;;;8.55;0.00
23318;BME280;11831;55.918;37.746;2023-03-30T09:01:19;98687.97;;;8.51;0.00
23318;BME280;11831;55.918;37.746;2023-03-30T09:09:15;98693.50;;;8.15;0.00
23318;BME280;11831;55.918;37.746;2023-03-30T09:11:43;98689.75;;;8.57;0.00
23318;BME280;11831;55.918;37.746;2023-03-30T09:14:36;98690.44;;;8.41;0.00
23318;BME280;11831;55.918;37.746;2023-03-30T09:17:12;98690.41;;;8.53;0.00
23318;BME280;11831;55.918;37.746;2023-03-30T09:22:28;98693.56;;;8.38;0.00
23318;BME280;11831;55.918;37.746;2023-03-30T09:24:57;98703.44;;;8.19;0.00
23318;BME280;11831;55.918;37.746;2023-03-30T09:29:59;98691.03;;;7.90;0.00
23318;BME280;11831;55.918;37.746;2023-03-30T09:32:32;98695.88;;;7.93;0.00
23318;BME280;11831;55.918;37.746;2023-03-30T09:37:37;98708.94;;;7.41;0.00
23318;BME280;11831;55.918;37.746;2023-03-30T09:40:38;98690.75;;;7.68;0.00
23318;BME280;11831;55.918;37.746;2023-03-30T09:45:44;98712.84;;;7.68;0.00
23318;BME280;11831;55.918;37.746;2023-03-30T09:48:10;98728.06;;;7.61;0.00
23318;BME280;11831;55.918;37.746;2023-03-30T09:50:42;98736.22;;;7.36;0.00
23318;BME280;11831;55.918;37.746;2023-03-30T09:53:22;98731.75;;;7.30;0.00
23318;BME280;11831;55.918;37.746;2023-03-30T09:55:58;98744.44;;;7.46;0.00
23318;BME280;11831;55.918;37.746;2023-03-30T09:58:27;98732.59;;;6.76;0.00
23318;BME280;11831;55.918;37.746;2023-03-30T10:01:11;98748.66;;;6.63;0.00
23318;BME280;11831;55.918;37.746;2023-03-30T10:03:39;98759.81;;;6.71;0.00
23318;BME280;11831;55.918;37.746;2023-03-30T10:06:11;98766.63;;;7.04;0.00
23318;BME280;11831;55.918;37.746;2023-03-30T10:08:49;98765.87;;;6.97;0.00
23318;BME280;11831;55.918;37.746;2023-03-30T10:13:59;98771.09;;;6.42;0.00
23318;BME280;11831;55.918;37.746;2023-03-30T10:16:27;98760.56;;;6.78;0.00
23318;BME280;11831;55.918;37.746;2023-03-30T10:19:03;98761.38;;;6.97;0.00
23318;BME280;11831;55.918;37.746;2023-03-30T10:21:35;98750.13;;;6.34;0.00
23318;BME280;11831;55.918;37.746;2023-03-30T10:24:05;98759.81;;;6.71;0.00
23318;BME280;11831;55.918;37.746;2023-03-30T10:26:36;98770.91;;;6.12;0.00
23318;BME280;11831;55.918;37.746;2023-03-30T10:29:05;98770.03;;;6.49;0.00
23318;BME280;11831;55.918;37.746;2023-03-30T10:31:34;98776.09;;;6.57;0.00
23318;BME280;11831;55.918;37.746;2023-03-30T10:34:03;98781.53;;;6.43;0.00
23318;BME280;11831;55.918;37.746;2023-03-30T10:36:34;98784.66;;;6.02;0.00
23318;BME280;11831;55.918;37.746;2023-03-30T10:42:04;98789.66;;;5.92;0.00
23318;BME280;11831;55.918;37.746;2023-03-30T10:44:42;98770.50;;;6.40;0.00
23318;BME280;11831;55.918;37.746;2023-03-30T10:52:26;98770.31;;;7.03;0.00
23318;BME280;11831;55.918;37.746;2023-03-30T10:55:06;98763.03;;;7.16;0.00
23318;BME280;11831;55.918;37.746;2023-03-30T10:57:58;98777.00;;;6.69;0.00
23318;BME280;11831;55.918;37.746;2023-03-30T11:03:20;98781.03;;;6.53;0.00
23318;BME280;11831;55.918;37.746;2023-03-30T11:05:52;98794.41;;;6.65;0.00
23318;BME280;11831;55.918;37.746;2023-03-30T11:08:25;98813.63;;;5.66;0.00
23318;BME280;11831;55.918;37.746;2023-03-30T11:10:56;98795.50;;;6.32;0.00
23318;BME280;11831;55.918;37.746;2023-03-30T11:15:58;98788.13;;;6.34;0.00
23318;BME280;11831;55.918;37.746;2023-03-30T11:21:10;98802.13;;;5.85;0.00
23318;BME280;11831;55.918;37.746;2023-03-30T11:23:51;98794.94;;;5.92;0.00
23318;BME280;11831;55.918;37.746;2023-03-30T11:37:29;98816.41;;;5.90;0.00
23318;BME280;11831;55.918;37.746;2023-03-30T11:40:25;98794.03;;;6.05;0.00
23318;BME280;11831;55.918;37.746;2023-03-30T11:42:54;98793.34;;;5.78;0.00
23318;BME280;11831;55.918;37.746;2023-03-30T11:51:45;98772.13;;;5.40;0.00
23318;BME280;11831;55.918;37.746;2023-03-30T11:54:36;98792.66;;;5.51;0.00
23318;BME280;11831;55.918;37.746;2023-03-30T11:59:59;98780.03;;;4.95;0.00
23318;BME280;11831;55.918;37.746;2023-03-30T12:05:28;98778.66;;;5.37;0.00
23318;BME280;11831;55.918;37.746;2023-03-30T12:08:02;98792.34;;;5.34;0.00
23318;BME280;11831;55.918;37.746;2023-03-30T12:10:40;98793.12;;;5.86;0.00
23318;BME280;11831;55.918;37.746;2023-03-30T12:13:14;98794.50;;;5.57;0.00
23318;BME280;11831;55.918;37.746;2023-03-30T12:18:42;98804.87;;;5.01;0.00
23318;BME280;11831;55.918;37.746;2023-03-30T12:21:25;98798.41;;;4.37;0.00
23318;BME280;11831;55.918;37.746;2023-03-30T12:24:09;98805.94;;;4.66;0.00
23318;BME280;11831;55.918;37.746;2023-03-30T12:26:39;98792.78;;;5.69;0.00
23318;BME280;11831;55.918;37.746;2023-03-30T12:34:26;98770.75;;;5.30;0.00
23318;BME280;11831;55.918;37.746;2023-03-30T12:36:59;98781.69;;;5.41;0.00
23318;BME280;11831;55.918;37.746;2023-03-30T12:39:40;98795.41;;;5.76;0.00
23318;BME280;11831;55.918;37.746;2023-03-30T12:42:23;98796.28;;;5.12;0.00
23318;BME280;11831;55.918;37.746;2023-03-30T12:50:50;98807.44;;;5.78;0.00
23318;BME280;11831;55.918;37.746;2023-03-30T13:05:33;98794.63;;;5.17;0.00
23318;BME280;11831;55.918;37.746;2023-03-30T13:08:16;98803.41;;;5.11;0.00
23318;BME280;11831;55.918;37.746;2023-03-30T13:10:46;98798.69;;;5.26;0.00
23318;BME280;11831;55.918;37.746;2023-03-30T13:13:21;98815.53;;;5.45;0.00
23318;BME280;11831;55.918;37.746;2023-03-30T13:15:53;98807.28;;;5.15;0.00
23318;BME280;11831;55.918;37.746;2023-03-30T13:18:30;98814.06;;;4.78;0.00
23318;BME280;11831;55.918;37.746;2023-03-30T13:21:26;98809.00;;;4.63;0.00
23318;BME280;11831;55.918;37.746;2023-03-30T13:24:02;98799.03;;;4.39;0.00
23318;BME280;11831;55.918;37.746;2023-03-30T13:26:40;98788.03;;;4.35;0.00
23318;BME280;11831;55.918;37.746;2023-03-30T13:29:12;98794.94;;;4.56;0.00
23318;BME280;11831;55.918;37.746;2023-03-30T13:34:57;98798.22;;;4.65;0.00
23318;BME280;11831;55.918;37.746;2023-03-30T13:40:36;98805.75;;;4.42;0.00
23318;BME280;11831;55.918;37.746;2023-03-30T13:46:10;98814.09;;;4.52;0.00
23318;BME280;11831;55.918;37.746;2023-03-30T13:51:39;98812.06;;;4.60;0.00
23318;BME280;11831;55.918;37.746;2023-03-30T13:56:41;98809.81;;;4.64;0.00
23318;BME280;11831;55.918;37.746;2023-03-30T13:59:13;98802.66;;;4.78;0.00
23318;BME280;11831;55.918;37.746;2023-03-30T14:01:45;98801.47;;;4.41;0.00
23318;BME280;11831;55.918;37.746;2023-03-30T14:04:15;98801.47;;;4.54;0.00
23318;BME280;11831;55.918;37.746;2023-03-30T14:06:44;98798.19;;;4.52;0.00
23318;BME280;11831;55.918;37.746;2023-03-30T14:09:25;98799.44;;;4.29;0.00
23318;BME280;11831;55.918;37.746;2023-03-30T14:12:00;98792.50;;;4.48;0.00
23318;BME280;11831;55.918;37.746;2023-03-30T14:14:35;98792.09;;;4.18;0.00
23318;BME280;11831;55.918;37.746;2023-03-30T14:17:32;98791.88;;;4.13;0.00
23318;BME280;11831;55.918;37.746;2023-03-30T14:20:04;98805.72;;;4.22;0.00
23318;BME280;11831;55.918;37.746;2023-03-30T14:22:37;98804.94;;;4.34;0.00
23318;BME280;11831;55.918;37.746;2023-03-30T14:25:28;98792.91;;;4.72;0.00
23318;BME280;11831;55.918;37.746;2023-03-30T14:27:56;98805.72;;;4.94;0.00
23318;BME280;11831;55.918;37.746;2023-03-30T14:30:23;98798.16;;;4.98;0.00
23318;BME280;11831;55.918;37.746;2023-03-30T14:33:08;98801.88;;;4.64;0.00
23318;BME280;11831;55.918;37.746;2023-03-30T14:40:50;98806.56;;;4.62;0.00
23318;BME280;11831;55.918;37.746;2023-03-30T14:43:37;98817.53;;;4.19;0.00
23318;BME280;11831;55.918;37.746;2023-03-30T14:46:09;98792.91;;;4.58;0.00
23318;BME280;11831;55.918;37.746;2023-03-30T14:48:40;98792.69;;;4.27;0.00
23318;BME280;11831;55.918;37.746;2023-03-30T14:51:38;98799.63;;;4.61;0.00
23318;BME280;11831;55.918;37.746;2023-03-30T14:54:09;98809.19;;;4.68;0.00
23318;BME280;11831;55.918;37.746;2023-03-30T14:56:38;98793.72;;;4.52;0.00
23318;BME280;11831;55.918;37.746;2023-03-30T14:59:06;98813.88;;;4.14;0.00
23318;BME280;11831;55.918;37.746;2023-03-30T15:01:33;98804.28;;;4.13;0.00
23318;BME280;11831;55.918;37.746;2023-03-30T15:04:09;98805.72;;;4.22;0.00
23318;BME280;11831;55.918;37.746;2023-03-30T15:06:38;98810.19;;;4.28;0.00
23318;BME280;11831;55.918;37.746;2023-03-30T15:09:19;98792.09;;;4.25;0.00
23318;BME280;11831;55.918;37.746;2023-03-30T15:11:51;98810.81;;;4.17;0.00
23318;BME280;11831;55.918;37.746;2023-03-30T15:14:21;98823.59;;;3.93;0.00
23318;BME280;11831;55.918;37.746;2023-03-30T15:16:54;98817.16;;;3.48;0.00
23318;BME280;11831;55.918;37.746;2023-03-30T15:19:29;98829.66;;;3.81;0.00
23318;BME280;11831;55.918;37.746;2023-03-30T15:22:02;98825.88;;;4.10;0.00
23318;BME280;11831;55.918;37.746;2023-03-30T15:24:31;98828.97;;;4.33;0.00
23318;BME280;11831;55.918;37.746;2023-03-30T15:27:01;98828.72;;;4.15;0.00
23318;BME280;11831;55.918;37.746;2023-03-30T15:29:28;98836.25;;;4.18;0.00
23318;BME280;11831;55.918;37.746;2023-03-30T15:32:12;98830.19;;;4.44;0.00
23318;BME280;11831;55.918;37.746;2023-03-30T15:37:56;98829.78;;;4.47;0.00
23318;BME280;11831;55.918;37.746;2023-03-30T15:40:36;98832.78;;;4.24;0.00
23318;BME280;11831;55.918;37.746;2023-03-30T15:45:55;98839.03;;;3.90;0.00
23318;BME280;11831;55.918;37.746;2023-03-30T15:48:35;98849.66;;;4.03;0.00
23318;BME280;11831;55.918;37.746;2023-03-30T15:51:08;98831.12;;;3.96;0.00
23318;BME280;11831;55.918;37.746;2023-03-30T15:53:58;98833.41;;;3.52;0.00
23318;BME280;11831;55.918;37.746;2023-03-30T15:56:33;98826.22;;;3.80;0.00
23318;BME280;11831;55.918;37.746;2023-03-30T15:59:01;98832.00;;;3.49;0.00
23318;BME280;11831;55.918;37.746;2023-03-30T16:01:42;98840.13;;;3.54;0.00